Aspen Park, Colorado
Current Conditions -  °F | °C
As of 3:34 PM on Monday 22 Dec 2014 (Local Time) from KAPA Reporting Station
Moderate Snow Moderate Snow  
Wind Chill: 14°   Ceiling: 900
Heat Index: 27°   Visibility: 0.25mi
Dew Point: 26°   Wind: 18mph
Humidity: 96%   Direction: 20°NNE
Pressure: 29.73"   Gusts: NA
Location:  39.4975°N, 105.289°W
Report Text: KAPA 222234Z 02016KT 1/4SM SN FZFG BKN009 BKN016 OVC027 M03/M03 A2973 RMK AO2 TWR VIS 1/2 P0000 T10281033
Loading
Personal Weather Stations






























Interactive Weather Map New forecast layout! Learn more

10-Day Weather Forecast

Advertisements
Track Severe Weather on mobile